aviador You're here:

PAKP Decoded Metar

ANAKTUVUK PASS in AK, USA
Report Time2018-07-16 08:22:00
UTC Time2018-07-16 08:29:23
Flight Rules vfr VFR
Wind090° at 04 kt
W.Decomp.*RWY 02: 2.6 kt HW 3.0 kt RCW
W.Rank090° ranks 29
Current wind is below 090° avg. (6.5)
Visibility9999 m
Phenomena:Rain
Clouds:Scattered 026 Hf
Overcast 046 Hf
Expected CloudBase > 800 ft AGL from Temp-Dew spread
Ceiling4,600 ft
Temp09°C (ISA -2)
Dew Point07°C (87% RH)
AAT6.9°C
QNH1004 hPa
Density Alt2,339 ft
Elevation2,106 ft
Report Wrong Elevation
Raw Report
PAKP 160822Z AUTO 09004KT 8SM RA SCT026 OVC046 09/07 A2966 RMK AO2
P0002=

Extra information for PAKP:More info

Metar Taf Metar & Taf Last 4 Metars F.Rules Stats Wind Profile Meteogram Temp Stats Airport Information Weather charts Add Link Nearby VenuesMetar ALERT Operation Metar Decoded Social comments

AIRNAV info for PAKP